Time;durP1;ratioP1;P1;durP2;ratioP2;P2;SDS_P1;SDS_P2;PMS_P1;PMS_P2;Temp;Humidity;BMP_temperature;BMP_pressure;BME280_temperature;BME280_humidity;BME280_pressure;Samples;Min_cycle;Max_cycle;Signal;HPM_P1;HPM_P2
2023/01/06 00:01:21;;;;;;;9.50;3.23;;;;;;;12.54;66.28;98503.22;8281383;28;20227;-76
2023/01/06 00:05:24;;;;;;;9.03;3.10;;;;;;;12.51;66.92;98503.38;8281070;28;20234;-74
2023/01/06 00:09:27;;;;;;;8.13;3.00;;;;;;;12.52;66.20;98498.09;8281109;28;20234;-75
2023/01/06 00:13:31;;;;;;;10.50;3.20;;;;;;;12.54;66.67;98492.84;8281300;28;20227;-75
2023/01/06 00:17:34;;;;;;;8.33;3.23;;;;;;;12.58;66.46;98497.00;8280915;28;20231;-75
2023/01/06 00:21:37;;;;;;;7.63;3.27;;;;;;;12.57;66.49;98482.31;8280595;28;20235;-75
2023/01/06 00:25:40;;;;;;;6.97;2.60;;;;;;;12.57;66.14;98476.28;8280883;28;20228;-74
2023/01/06 00:29:44;;;;;;;7.70;2.50;;;;;;;12.62;66.19;98467.38;8283816;28;20232;-74
2023/01/06 00:33:46;;;;;;;7.73;2.97;;;;;;;12.61;66.31;98463.09;8286988;28;20231;-74
2023/01/06 00:37:49;;;;;;;8.47;2.90;;;;;;;12.57;66.04;98471.94;8286835;28;20231;-75
2023/01/06 00:42:04;;;;;;;7.53;2.97;;;;;;;12.56;66.58;98474.59;8286351;28;20236;-75
2023/01/06 00:46:08;;;;;;;7.33;2.87;;;;;;;12.46;66.78;98485.38;8286520;28;20231;-75
2023/01/06 00:50:11;;;;;;;7.47;3.17;;;;;;;12.55;66.65;98471.16;8286572;28;20234;-75
2023/01/06 00:54:15;;;;;;;7.07;2.73;;;;;;;12.54;66.93;98481.63;8286356;28;20319;-74
2023/01/06 00:58:18;;;;;;;6.07;2.80;;;;;;;12.60;66.70;98482.19;8286322;28;20377;-75
2023/01/06 01:02:22;;;;;;;9.47;3.10;;;;;;;12.66;66.63;98473.25;8285975;28;20234;-74
2023/01/06 01:06:25;;;;;;;13.00;3.43;;;;;;;12.44;67.14;98465.59;8285916;28;20228;-75
2023/01/06 01:10:28;;;;;;;8.93;3.13;;;;;;;12.65;66.65;98466.41;8285858;28;20234;-75
2023/01/06 01:14:30;;;;;;;7.70;3.10;;;;;;;12.55;67.31;98472.94;8285881;28;20546;-74
2023/01/06 01:18:35;;;;;;;6.37;2.87;;;;;;;12.66;66.86;98470.66;8285406;28;20231;-74
2023/01/06 01:22:38;;;;;;;7.03;2.83;;;;;;;12.64;66.79;98468.16;8287794;28;20231;-74
2023/01/06 01:26:41;;;;;;;6.53;3.00;;;;;;;12.68;66.87;98467.09;8284798;28;20246;-73
2023/01/06 01:30:44;;;;;;;6.10;2.67;;;;;;;12.64;67.40;98462.09;8285486;28;20232;-74
2023/01/06 01:34:48;;;;;;;6.77;2.97;;;;;;;12.72;66.98;98467.81;8285153;28;20260;-74
2023/01/06 01:38:51;;;;;;;6.47;2.73;;;;;;;12.65;67.33;98464.63;8284461;28;20243;-74
2023/01/06 01:42:53;;;;;;;5.13;2.67;;;;;;;12.66;66.75;98461.13;8283959;28;20228;-74
2023/01/06 01:46:56;;;;;;;6.07;3.33;;;;;;;12.63;67.33;98456.06;8284866;28;20236;-75
2023/01/06 01:51:03;;;;;;;6.17;3.13;;;;;;;12.70;66.96;98460.09;8284593;28;20258;-74
2023/01/06 01:55:08;;;;;;;7.33;2.77;;;;;;;12.62;67.55;98449.19;8284336;28;20503;-74
2023/01/06 01:59:14;;;;;;;5.00;2.70;;;;;;;12.69;67.10;98445.38;8284342;28;20238;-74
2023/01/06 02:03:19;;;;;;;5.00;3.20;;;;;;;12.67;67.27;98436.00;8284295;28;20223;-74
2023/01/06 02:07:25;;;;;;;7.27;3.20;;;;;;;12.73;67.11;98442.66;8283723;28;20533;-74
2023/01/06 02:11:31;;;;;;;6.57;2.90;;;;;;;12.69;67.23;98440.19;8284055;28;20486;-74
2023/01/06 02:15:34;;;;;;;6.00;2.53;;;;;;;12.74;67.63;98427.00;8284055;28;20334;-74
2023/01/06 02:19:55;;;;;;;5.43;2.77;;;;;;;12.79;67.13;98426.78;8283510;28;20517;-74
2023/01/06 02:24:37;;;;;;;6.53;2.80;;;;;;;12.68;67.48;98432.50;8283445;28;20227;-74
2023/01/06 02:29:17;;;;;;;5.53;2.80;;;;;;;12.64;67.37;98430.91;8283616;28;20279;-75
2023/01/06 02:33:24;;;;;;;7.30;2.83;;;;;;;12.67;67.73;98426.44;8283099;28;20252;-74
2023/01/06 02:37:35;;;;;;;5.53;3.03;;;;;;;12.62;68.05;98422.34;8283146;28;20233;-74
2023/01/06 02:41:41;;;;;;;6.30;2.97;;;;;;;12.67;68.19;98418.63;8283125;28;20231;-74
2023/01/06 02:45:49;;;;;;;5.23;3.07;;;;;;;12.71;68.34;98416.75;8282707;28;20253;-73
2023/01/06 02:49:58;;;;;;;5.80;3.60;;;;;;;12.67;68.52;98416.03;8283025;28;20243;-74
2023/01/06 02:54:08;;;;;;;6.53;3.20;;;;;;;12.63;68.42;98411.91;8282343;28;20235;-74
2023/01/06 02:58:16;;;;;;;4.93;3.20;;;;;;;12.67;68.97;98416.03;8282535;28;20355;-74
2023/01/06 03:02:19;;;;;;;4.57;3.27;;;;;;;12.79;68.63;98416.38;8282523;28;20227;-74
2023/01/06 03:06:26;;;;;;;5.57;3.00;;;;;;;12.77;68.06;98405.22;8282153;28;20244;-73
2023/01/06 03:10:30;;;;;;;6.10;2.90;;;;;;;12.77;68.44;98415.63;8282122;28;20581;-73
2023/01/06 03:14:35;;;;;;;6.57;3.10;;;;;;;12.79;68.22;98412.03;8282206;28;20540;-73
2023/01/06 03:18:38;;;;;;;5.63;3.60;;;;;;;12.56;69.15;98412.25;8281676;28;20231;-74
2023/01/06 03:22:43;;;;;;;5.13;3.23;;;;;;;12.72;68.49;98397.66;8281406;28;20224;-72
2023/01/06 03:26:51;;;;;;;5.23;3.23;;;;;;;12.81;68.22;98405.03;8281780;28;20238;-74
2023/01/06 03:31:04;;;;;;;4.60;3.23;;;;;;;12.89;67.58;98397.69;8281840;28;20299;-73
2023/01/06 03:35:21;;;;;;;4.87;3.40;;;;;;;12.81;68.14;98398.97;8281577;28;20462;-74
2023/01/06 03:39:32;;;;;;;4.20;2.93;;;;;;;12.77;68.76;98398.25;8281619;28;20232;-74
2023/01/06 03:43:39;;;;;;;4.57;3.20;;;;;;;12.85;68.33;98401.38;8281443;28;20229;-74
2023/01/06 03:47:49;;;;;;;5.27;2.80;;;;;;;12.82;68.28;98400.66;8280986;28;20225;-73
2023/01/06 03:51:56;;;;;;;3.87;3.20;;;;;;;12.77;68.50;98398.25;8281137;28;20227;-74
2023/01/06 03:56:08;;;;;;;3.37;2.67;;;;;;;12.88;68.45;98397.78;8281130;28;20232;-74
2023/01/06 04:00:14;;;;;;;4.93;3.27;;;;;;;12.83;68.45;98395.41;8281264;28;20229;-74
2023/01/06 04:04:17;;;;;;;4.33;3.20;;;;;;;12.70;69.18;98394.28;8284180;28;20228;-74
2023/01/06 04:08:20;;;;;;;4.23;2.50;;;;;;;12.55;70.27;98372.44;8287485;28;20233;-76
2023/01/06 04:12:39;;;;;;;3.07;2.30;;;;;;;12.78;69.14;98381.78;8287649;28;20237;-74
2023/01/06 04:16:42;;;;;;;3.03;2.23;;;;;;;12.80;68.58;98364.34;8287203;28;20220;-73
2023/01/06 04:20:45;;;;;;;2.90;2.23;;;;;;;12.81;69.29;98363.44;8286776;28;20231;-73
2023/01/06 04:24:47;;;;;;;4.03;2.30;;;;;;;12.86;68.58;98363.22;8287165;28;20242;-73
2023/01/06 04:28:51;;;;;;;3.23;2.30;;;;;;;12.86;69.05;98365.81;8287052;28;20254;-74
2023/01/06 04:32:54;;;;;;;4.57;2.93;;;;;;;12.79;69.25;98372.22;8287158;28;20227;-74
2023/01/06 04:36:57;;;;;;;3.97;2.50;;;;;;;12.86;68.58;98365.81;8286744;28;20245;-73
2023/01/06 04:41:00;;;;;;;4.63;2.27;;;;;;;12.88;68.46;98358.78;8286818;28;20238;-73
2023/01/06 04:45:05;;;;;;;3.77;2.33;;;;;;;12.91;68.67;98362.09;8286809;28;20511;-74
2023/01/06 04:49:08;;;;;;;3.07;2.40;;;;;;;12.85;69.11;98358.91;8286697;28;20290;-73
2023/01/06 04:53:12;;;;;;;3.27;2.13;;;;;;;12.94;68.34;98357.66;8286310;28;20224;-74
2023/01/06 04:57:15;;;;;;;3.20;2.40;;;;;;;12.57;69.22;98300.47;8286369;28;20235;-74
2023/01/06 05:01:19;;;;;;;2.53;2.33;;;;;;;12.84;69.01;98345.09;8286286;28;20241;-73
2023/01/06 05:05:22;;;;;;;2.77;2.30;;;;;;;12.92;68.75;98339.53;8286337;28;20271;-74
2023/01/06 05:09:25;;;;;;;3.93;2.67;;;;;;;12.94;69.12;98342.06;8286173;28;20237;-74
2023/01/06 05:13:28;;;;;;;2.50;2.30;;;;;;;12.95;69.00;98338.56;8285735;28;20260;-74
2023/01/06 05:17:32;;;;;;;2.97;1.80;;;;;;;12.97;68.64;98336.72;8285596;28;20233;-74
2023/01/06 05:21:35;;;;;;;2.47;1.90;;;;;;;12.90;68.82;98338.75;8285537;28;20239;-74
2023/01/06 05:25:37;;;;;;;2.87;1.97;;;;;;;12.99;68.72;98332.28;8285565;28;20239;-73
2023/01/06 05:29:41;;;;;;;2.30;1.70;;;;;;;13.04;68.92;98333.75;8285524;28;20229;-74
2023/01/06 05:33:45;;;;;;;2.27;1.80;;;;;;;13.07;68.56;98332.75;8284664;28;20225;-73
2023/01/06 05:37:48;;;;;;;1.90;1.80;;;;;;;13.08;68.75;98324.88;8285074;28;20232;-73
2023/01/06 05:41:51;;;;;;;2.63;2.07;;;;;;;13.04;68.59;98322.47;8285017;28;20242;-74
2023/01/06 05:45:54;;;;;;;4.00;2.83;;;;;;;13.06;68.45;98318.91;8284628;28;20242;-74
2023/01/06 05:49:58;;;;;;;3.40;2.30;;;;;;;13.03;68.39;98320.81;8284974;28;20238;-74
2023/01/06 05:54:01;;;;;;;2.47;2.10;;;;;;;13.07;68.50;98324.94;8284508;28;20661;-74
2023/01/06 05:58:04;;;;;;;1.50;1.40;;;;;;;12.96;68.65;98319.41;8284634;28;20225;-74
2023/01/06 06:02:07;;;;;;;2.20;1.50;;;;;;;13.06;68.38;98315.44;8284338;28;20251;-73
2023/01/06 06:06:12;;;;;;;1.80;1.70;;;;;;;13.02;68.19;98317.38;8284199;28;20240;-73
2023/01/06 06:10:14;;;;;;;2.00;1.40;;;;;;;13.03;68.47;98324.25;8284432;28;20438;-73
2023/01/06 06:14:17;;;;;;;2.07;1.50;;;;;;;13.07;68.29;98327.53;8284109;28;20233;-73
2023/01/06 06:18:20;;;;;;;1.97;1.60;;;;;;;13.02;68.03;98325.19;8283682;28;20241;-74
2023/01/06 06:22:24;;;;;;;2.20;1.70;;;;;;;13.09;68.25;98329.16;8283630;28;20438;-74
2023/01/06 06:26:27;;;;;;;1.87;1.47;;;;;;;13.09;68.09;98329.16;8283393;28;20233;-74
2023/01/06 06:30:30;;;;;;;1.50;1.40;;;;;;;13.11;67.83;98332.50;8283692;28;20231;-74
2023/01/06 06:34:32;;;;;;;4.97;3.67;;;;;;;13.05;68.36;98329.38;8283415;28;20236;-74
2023/01/06 06:38:37;;;;;;;7.17;4.80;;;;;;;13.06;67.93;98326.72;8283247;28;20230;-74
2023/01/06 06:42:39;;;;;;;5.73;4.37;;;;;;;13.06;68.00;98324.13;8283224;28;20241;-73
2023/01/06 06:46:42;;;;;;;5.67;2.97;;;;;;;12.99;68.12;98335.72;8282320;28;20229;-73
2023/01/06 06:50:45;;;;;;;3.40;1.90;;;;;;;13.00;68.25;98332.19;8282725;28;20555;-74
2023/01/06 06:54:49;;;;;;;3.30;2.60;;;;;;;13.04;68.07;98331.16;8282697;28;20234;-74
2023/01/06 06:58:51;;;;;;;2.23;2.03;;;;;;;13.13;67.87;98342.00;8282664;28;20529;-73
2023/01/06 07:02:54;;;;;;;2.60;2.50;;;;;;;13.00;67.79;98342.59;8282248;28;20245;-73
2023/01/06 07:06:57;;;;;;;2.40;2.20;;;;;;;13.01;68.13;98343.44;8282323;28;20233;-73
2023/01/06 07:11:02;;;;;;;2.10;1.90;;;;;;;12.81;68.93;98350.44;8282147;28;20235;-74
2023/01/06 07:15:05;;;;;;;1.60;1.50;;;;;;;13.00;68.07;98352.97;8282230;28;20229;-74
2023/01/06 07:19:09;;;;;;;2.00;1.63;;;;;;;13.04;67.59;98353.69;8281468;28;20228;-74
2023/01/06 07:23:15;;;;;;;2.13;2.00;;;;;;;13.00;68.04;98349.53;8281714;28;20257;-74
2023/01/06 07:27:20;;;;;;;3.20;2.00;;;;;;;12.90;68.16;98356.94;8281452;28;20237;-74
2023/01/06 07:31:22;;;;;;;2.83;1.77;;;;;;;12.96;67.45;98366.22;8281636;28;20237;-74
2023/01/06 07:35:25;;;;;;;2.33;2.13;;;;;;;13.04;67.32;98364.09;8281540;28;20232;-74
2023/01/06 07:39:28;;;;;;;2.20;2.00;;;;;;;12.93;67.83;98366.34;8280697;28;20240;-74
2023/01/06 07:43:32;;;;;;;1.80;1.57;;;;;;;13.02;67.65;98365.91;8281416;28;20541;-74
2023/01/06 07:47:35;;;;;;;2.23;1.70;;;;;;;12.98;67.79;98364.38;8281370;28;20565;-74
2023/01/06 07:51:38;;;;;;;2.87;2.20;;;;;;;13.02;67.21;98364.19;8281203;28;20233;-74
2023/01/06 07:55:41;;;;;;;2.00;1.90;;;;;;;13.01;67.28;98348.66;8280644;28;20416;-74
2023/01/06 07:59:45;;;;;;;2.17;1.80;;;;;;;13.10;67.28;98356.84;8280927;28;20288;-74
2023/01/06 08:03:48;;;;;;;2.60;2.17;;;;;;;13.17;67.00;98351.34;8280935;28;20565;-74
2023/01/06 08:07:51;;;;;;;2.50;2.30;;;;;;;12.94;68.10;98340.28;8281114;28;20245;-77
2023/01/06 08:11:54;;;;;;;2.50;2.30;;;;;;;13.03;67.76;98357.22;8281189;28;20236;-78
2023/01/06 08:15:58;;;;;;;2.47;2.27;;;;;;;13.10;67.46;98354.25;8280893;28;20308;-78
2023/01/06 08:20:01;;;;;;;2.30;2.10;;;;;;;13.28;67.59;98369.88;8280594;28;20415;-75
2023/01/06 08:24:05;;;;;;;2.00;1.80;;;;;;;12.81;68.69;98323.59;8280891;28;20474;-75
2023/01/06 08:28:08;;;;;;;2.87;2.00;;;;;;;13.25;68.08;98360.47;8281154;28;20230;-76
2023/01/06 08:32:12;;;;;;;2.30;2.20;;;;;;;13.08;68.75;98356.06;8280616;28;20240;-77
2023/01/06 08:36:20;;;;;;;2.60;1.97;;;;;;;12.88;68.56;98349.22;8280935;28;20234;-77
2023/01/06 08:40:22;;;;;;;2.43;2.23;;;;;;;13.04;69.27;98356.28;8280643;28;20268;-76
2023/01/06 08:44:25;;;;;;;2.13;2.03;;;;;;;12.93;69.32;98364.63;8280676;28;20230;-76
2023/01/06 08:48:30;;;;;;;2.20;2.00;;;;;;;12.99;69.14;98355.69;8280664;28;20253;-76
2023/01/06 08:52:32;;;;;;;2.47;2.10;;;;;;;13.06;69.42;98381.31;8286280;28;20236;-76
2023/01/06 08:56:35;;;;;;;1.80;1.70;;;;;;;12.95;68.57;98378.38;8286677;28;20280;-76
2023/01/06 09:00:40;;;;;;;2.23;1.33;;;;;;;13.01;69.37;98390.25;8287396;28;20247;-75
2023/01/06 09:04:45;;;;;;;1.23;1.23;;;;;;;12.97;69.18;98388.72;8285714;28;20229;-73
2023/01/06 09:08:48;;;;;;;1.73;1.20;;;;;;;12.75;68.64;98366.31;8286047;28;20265;-75
2023/01/06 09:12:51;;;;;;;1.50;1.40;;;;;;;12.90;68.37;98393.34;8286179;28;20533;-76
2023/01/06 09:16:53;;;;;;;1.20;0.97;;;;;;;13.08;67.18;98389.03;8285750;28;20236;-76
2023/01/06 09:20:58;;;;;;;1.33;1.00;;;;;;;12.89;67.44;98392.50;8285651;28;20246;-75
2023/01/06 09:25:01;;;;;;;1.00;0.90;;;;;;;12.95;67.61;98400.94;8285366;28;20237;-76
2023/01/06 09:29:03;;;;;;;0.90;0.90;;;;;;;13.00;66.71;98399.78;8285688;28;20230;-76
2023/01/06 09:33:07;;;;;;;1.33;0.80;;;;;;;13.14;66.79;98408.72;8285441;28;20533;-76
2023/01/06 09:37:11;;;;;;;0.70;0.70;;;;;;;13.19;66.57;98417.94;8285267;28;20228;-77
2023/01/06 09:41:46;;;;;;;0.60;0.60;;;;;;;13.16;65.76;98407.72;8285494;28;20232;-78
2023/01/06 09:45:53;;;;;;;1.03;0.80;;;;;;;13.09;66.50;98406.31;8282880;28;20231;-77
2023/01/06 09:49:59;;;;;;;0.90;0.70;;;;;;;13.16;66.00;98405.09;8285441;28;20305;-78
2023/01/06 09:54:10;;;;;;;1.07;0.87;;;;;;;13.12;65.75;98408.78;8285767;28;20230;-80
2023/01/06 09:58:14;;;;;;;1.80;0.70;;;;;;;13.05;66.12;98410.81;8285237;28;20230;-76
2023/01/06 10:02:21;;;;;;;0.53;0.50;;;;;;;13.28;65.50;98414.91;8284431;28;20238;-76
2023/01/06 10:06:30;;;;;;;1.27;0.70;;;;;;;13.28;65.44;98411.47;8284439;28;20255;-78
2023/01/06 10:10:42;;;;;;;0.50;0.50;;;;;;;13.04;64.98;98400.47;8284587;28;20235;-78
2023/01/06 10:14:53;;;;;;;1.93;1.00;;;;;;;13.11;65.44;98389.72;8283755;28;20235;-77
2023/01/06 10:19:04;;;;;;;0.97;0.60;;;;;;;13.11;64.91;98383.69;8283802;28;20234;-77
2023/01/06 10:23:15;;;;;;;0.70;0.70;;;;;;;12.83;65.56;98378.94;8283881;28;20234;-77
2023/01/06 10:27:27;;;;;;;0.50;0.50;;;;;;;13.04;64.92;98374.47;8283851;28;20295;-78
2023/01/06 10:31:33;;;;;;;0.60;0.60;;;;;;;12.84;64.82;98363.28;8283750;28;20229;-78
2023/01/06 10:35:37;;;;;;;1.33;0.87;;;;;;;13.02;65.00;98369.38;8283393;28;20228;-78
2023/01/06 10:39:41;;;;;;;0.80;0.80;;;;;;;12.55;64.90;98337.84;8283406;28;20287;-77
2023/01/06 10:43:46;;;;;;;0.80;0.80;;;;;;;12.38;63.12;98370.59;8282798;28;20237;-77
2023/01/06 10:47:51;;;;;;;0.63;0.60;;;;;;;12.64;62.51;98374.63;8283118;28;20245;-76
2023/01/06 10:52:01;;;;;;;0.80;0.80;;;;;;;12.83;61.93;98365.94;8281622;28;20238;-77
2023/01/06 10:56:06;;;;;;;0.60;0.60;;;;;;;12.78;60.97;98367.94;8281267;28;20225;-77
2023/01/06 11:00:16;;;;;;;0.77;0.67;;;;;;;12.96;60.74;98387.00;8279599;28;20245;-76
2023/01/06 11:04:20;;;;;;;0.90;0.80;;;;;;;12.98;59.89;98359.19;8281910;28;20237;-77
2023/01/06 11:08:23;;;;;;;0.90;0.90;;;;;;;12.68;59.25;98362.34;8282688;28;20359;-77
2023/01/06 11:12:30;;;;;;;2.50;1.23;;;;;;;12.80;59.84;98373.91;8282240;28;20229;-77
2023/01/06 11:16:36;;;;;;;4.37;3.10;;;;;;;13.00;59.27;98367.75;8282330;28;20578;-77
2023/01/06 11:20:40;;;;;;;11.70;7.80;;;;;;;13.10;58.82;98380.25;8281904;28;20428;-77
2023/01/06 11:24:52;;;;;;;1.47;1.20;;;;;;;13.03;57.20;98373.66;8281504;28;20234;-76
2023/01/06 11:28:55;;;;;;;1.83;1.20;;;;;;;12.97;58.46;98378.31;8282107;28;20234;-76
2023/01/06 11:32:59;;;;;;;1.40;1.30;;;;;;;12.99;58.33;98389.47;8282039;28;20431;-77
2023/01/06 11:37:02;;;;;;;1.10;1.10;;;;;;;13.04;57.76;98384.88;8281889;28;20312;-76
2023/01/06 11:41:08;;;;;;;2.20;2.00;;;;;;;13.07;58.09;98377.78;8281339;28;20245;-77
2023/01/06 11:45:29;;;;;;;1.87;1.63;;;;;;;12.68;59.08;98346.75;8281768;28;20238;-76
2023/01/06 11:49:35;;;;;;;2.10;1.90;;;;;;;12.79;58.76;98382.59;8281385;28;20289;-77
2023/01/06 11:53:39;;;;;;;1.13;1.03;;;;;;;12.76;59.25;98390.56;8281110;28;20236;-77
2023/01/06 11:57:44;;;;;;;1.20;1.10;;;;;;;12.92;59.00;98381.09;8281153;28;20239;-76
2023/01/06 12:01:52;;;;;;;1.50;1.40;;;;;;;12.91;59.03;98380.28;8281225;28;20267;-77
2023/01/06 12:06:00;;;;;;;1.03;0.97;;;;;;;12.87;59.48;98373.53;8280970;28;20229;-76
2023/01/06 12:10:06;;;;;;;2.43;1.00;;;;;;;12.81;59.31;98379.03;8281263;28;20232;-76
2023/01/06 12:14:13;;;;;;;2.03;0.97;;;;;;;12.79;60.38;98377.41;8280912;28;20227;-77
2023/01/06 12:18:32;;;;;;;1.50;1.40;;;;;;;12.78;60.73;98375.75;8280949;28;20243;-77
2023/01/06 12:22:40;;;;;;;2.97;1.00;;;;;;;12.78;61.04;98378.34;8280908;28;20285;-76
2023/01/06 12:26:43;;;;;;;2.50;2.00;;;;;;;12.88;60.78;98358.78;8285831;28;20238;-76
2023/01/06 12:30:50;;;;;;;2.50;1.03;;;;;;;12.92;60.30;98357.72;8287352;28;20225;-76
2023/01/06 12:34:54;;;;;;;1.70;1.10;;;;;;;13.23;60.23;98354.50;8286802;28;20238;-76
2023/01/06 12:39:01;;;;;;;2.27;2.00;;;;;;;13.20;60.50;98354.63;8287056;28;20512;-77
2023/01/06 12:43:13;;;;;;;2.13;1.80;;;;;;;13.30;60.18;98340.28;8287049;28;20252;-77
2023/01/06 12:47:19;;;;;;;1.17;0.80;;;;;;;13.06;60.23;98333.66;8286898;28;20306;-77
2023/01/06 12:51:27;;;;;;;1.37;1.20;;;;;;;13.26;59.26;98312.72;8286737;28;20233;-77
2023/01/06 12:55:44;;;;;;;0.83;0.80;;;;;;;13.36;58.32;98318.31;8286517;28;20424;-77
2023/01/06 12:59:57;;;;;;;0.73;0.70;;;;;;;13.27;58.46;98318.78;8285847;28;20233;-76
2023/01/06 13:04:13;;;;;;;1.00;0.83;;;;;;;13.16;58.89;98331.47;8285942;28;20244;-77
2023/01/06 13:08:25;;;;;;;0.80;0.80;;;;;;;13.07;58.64;98322.34;8286241;28;20229;-76
2023/01/06 13:12:47;;;;;;;0.93;0.73;;;;;;;13.08;58.25;98326.66;8286156;28;20237;-81
2023/01/06 13:16:56;;;;;;;0.60;0.60;;;;;;;13.16;57.42;98334.06;8285259;28;20228;-77
2023/01/06 13:21:03;;;;;;;2.00;0.80;;;;;;;13.05;57.99;98348.41;8285659;28;20329;-77
2023/01/06 13:25:25;;;;;;;1.23;0.93;;;;;;;12.74;58.54;98362.03;8285336;28;20231;-77
2023/01/06 13:29:39;;;;;;;0.93;0.80;;;;;;;12.86;57.96;98360.63;8285576;28;20426;-77
2023/01/06 13:34:00;;;;;;;1.17;1.00;;;;;;;12.73;57.96;98351.72;8284849;28;20536;-75
2023/01/06 13:38:17;;;;;;;1.50;1.40;;;;;;;12.77;57.84;98364.47;8283864;28;20225;-77
2023/01/06 13:42:30;;;;;;;1.40;1.30;;;;;;;12.80;58.63;98355.72;8284926;28;20253;-75
2023/01/06 13:46:35;;;;;;;1.83;1.03;;;;;;;12.74;58.32;98350.78;8284839;28;20237;-77
2023/01/06 13:50:38;;;;;;;0.70;0.70;;;;;;;12.49;58.45;98359.75;8284220;28;20510;-76
2023/01/06 13:55:25;;;;;;;0.73;0.73;;;;;;;12.60;57.86;98367.03;8284566;28;20526;-76
2023/01/06 13:59:27;;;;;;;1.50;0.70;;;;;;;12.64;57.87;98365.97;8256323;28;20232;-76
2023/01/06 14:03:32;;;;;;;0.70;0.70;;;;;;;12.80;58.21;98364.34;8284513;28;20253;-76
2023/01/06 14:07:36;;;;;;;1.43;0.80;;;;;;;12.93;58.18;98372.41;8284451;28;20223;-78
2023/01/06 14:11:40;;;;;;;0.87;0.80;;;;;;;13.05;57.49;98373.56;8284317;28;20226;-78
2023/01/06 14:15:54;;;;;;;1.17;1.17;;;;;;;13.04;57.65;98374.47;8283588;28;20229;-77
2023/01/06 14:19:58;;;;;;;0.90;0.90;;;;;;;13.06;57.64;98370.91;8283909;28;20258;-77
2023/01/06 14:24:03;;;;;;;4.03;1.27;;;;;;;14.38;65.39;98365.19;8283499;28;20253;-75
2023/01/06 14:28:08;;;;;;;1.10;1.00;;;;;;;14.88;63.48;98373.81;8283594;28;20227;-74
2023/01/06 14:32:31;;;;;;;1.20;1.07;;;;;;;14.01;56.53;98365.34;8283331;28;20417;-80
2023/01/06 14:36:36;;;;;;;1.33;0.80;;;;;;;13.59;55.84;98378.78;8283528;28;20223;-79
2023/01/06 14:40:47;;;;;;;1.30;1.10;;;;;;;13.65;56.19;98379.31;8283450;28;20227;-79
2023/01/06 14:44:52;;;;;;;1.57;1.00;;;;;;;13.11;56.18;98378.47;8282907;28;20239;-79
2023/01/06 14:48:59;;;;;;;3.10;0.83;;;;;;;12.97;56.59;98380.91;8282956;28;20244;-78
2023/01/06 14:53:07;;;;;;;1.80;1.70;;;;;;;13.02;56.68;98389.31;8282874;28;20234;-79
2023/01/06 14:57:23;;;;;;;1.53;1.00;;;;;;;12.93;56.96;98388.00;8283087;28;20245;-78
2023/01/06 15:01:31;;;;;;;0.90;0.90;;;;;;;12.87;57.11;98388.28;8282475;28;20242;-78
2023/01/06 15:05:35;;;;;;;1.13;1.00;;;;;;;12.74;57.21;98385.44;8282278;28;20235;-78
2023/01/06 15:09:39;;;;;;;1.20;0.70;;;;;;;12.91;57.00;98390.69;8282314;28;20230;-78
2023/01/06 15:13:43;;;;;;;1.37;0.87;;;;;;;12.83;57.74;98398.00;8281802;28;20231;-78
2023/01/06 15:17:46;;;;;;;1.10;1.00;;;;;;;12.79;58.08;98395.59;8282207;28;20329;-78
2023/01/06 15:21:50;;;;;;;1.40;0.80;;;;;;;12.78;56.98;98388.72;8281946;28;20242;-78
2023/01/06 15:25:55;;;;;;;1.37;0.80;;;;;;;12.77;57.44;98410.41;8281993;28;20248;-77
2023/01/06 15:29:58;;;;;;;1.83;0.87;;;;;;;12.88;57.21;98400.38;8281848;28;20236;-80
2023/01/06 15:34:03;;;;;;;2.87;1.50;;;;;;;13.00;57.61;98409.34;8281631;28;20247;-78
2023/01/06 15:38:14;;;;;;;3.33;1.33;;;;;;;13.10;59.24;98411.44;8281740;28;20256;-77
2023/01/06 15:42:21;;;;;;;0.93;0.93;;;;;;;13.03;57.04;98415.25;8280198;28;20227;-79
2023/01/06 15:46:25;;;;;;;1.17;0.80;;;;;;;12.95;57.17;98412.19;8281438;28;20241;-80
2023/01/06 15:50:30;;;;;;;2.27;1.20;;;;;;;13.03;56.76;98414.41;8281769;28;20237;-80
2023/01/06 15:54:36;;;;;;;1.00;1.00;;;;;;;12.94;56.92;98418.28;8281724;28;20233;-78
2023/01/06 15:58:40;;;;;;;1.40;1.30;;;;;;;13.11;57.13;98422.69;8280678;28;20233;-80
2023/01/06 16:02:47;;;;;;;1.10;1.00;;;;;;;13.08;56.99;98428.88;8281425;28;20399;-81
2023/01/06 16:06:50;;;;;;;1.57;1.37;;;;;;;12.96;57.17;98413.84;8281687;28;20233;-81
2023/01/06 16:15:49;;;;;;;2.17;1.17;;;;;;;12.99;57.13;98433.69;8268303;28;20231;-80
2023/01/06 16:19:58;;;;;;;1.27;1.00;;;;;;;12.83;57.59;98425.72;8281691;28;20317;-78
2023/01/06 16:24:04;;;;;;;2.13;1.10;;;;;;;12.71;57.58;98435.75;8281233;28;20379;-81
2023/01/06 16:28:16;;;;;;;2.00;1.80;;;;;;;12.82;57.20;98427.50;8281638;28;20458;-80
2023/01/06 16:32:27;;;;;;;1.87;1.77;;;;;;;12.88;57.51;98427.19;8281150;28;20237;-79
2023/01/06 16:36:29;;;;;;;2.13;1.60;;;;;;;12.84;57.89;98428.25;8281173;28;20240;-79
2023/01/06 16:40:32;;;;;;;1.73;1.30;;;;;;;12.89;57.24;98420.25;8281362;28;20232;-80
2023/01/06 16:44:35;;;;;;;1.60;1.50;;;;;;;12.65;58.23;98432.63;8280995;28;20545;-80
2023/01/06 16:48:39;;;;;;;1.40;1.30;;;;;;;12.78;57.29;98438.94;8280830;28;20249;-80
2023/01/06 16:52:43;;;;;;;2.63;1.40;;;;;;;12.66;57.75;98427.34;8280590;28;20285;-80
2023/01/06 16:56:48;;;;;;;2.30;2.10;;;;;;;12.67;57.91;98430.78;8280901;28;20232;-79
2023/01/06 17:00:53;;;;;;;4.10;2.90;;;;;;;12.81;57.47;98422.34;8280394;28;20432;-75
2023/01/06 17:04:57;;;;;;;3.33;2.10;;;;;;;12.74;57.91;98429.59;8280311;28;20232;-76
2023/01/06 17:09:01;;;;;;;2.90;2.53;;;;;;;12.62;58.21;98432.75;8280904;28;20233;-76
2023/01/06 17:17:25;;;;;;;2.10;1.50;;;;;;;12.71;58.19;98435.75;8285998;28;20239;-76
2023/01/06 17:21:33;;;;;;;2.13;1.10;;;;;;;12.80;57.27;98431.09;8286152;28;20434;-77
2023/01/06 17:25:36;;;;;;;2.17;1.70;;;;;;;12.79;57.22;98437.19;8285385;28;20258;-76
2023/01/06 17:29:39;;;;;;;1.13;1.00;;;;;;;12.61;58.54;98442.31;8285443;28;20237;-76
2023/01/06 17:33:43;;;;;;;2.40;1.13;;;;;;;12.75;58.15;98441.66;8285098;28;20233;-77
2023/01/06 17:37:50;;;;;;;1.27;1.17;;;;;;;12.62;57.93;98436.22;8285505;28;20234;-77
2023/01/06 17:41:59;;;;;;;2.97;1.20;;;;;;;12.66;57.39;98435.16;8285499;28;20257;-77
2023/01/06 17:46:15;;;;;;;1.40;1.30;;;;;;;12.66;57.71;98429.97;8283290;28;20235;-77
2023/01/06 17:50:27;;;;;;;1.33;1.20;;;;;;;12.87;57.25;98448.06;8285169;28;20228;-76
2023/01/06 17:58:59;;;;;;;3.43;3.13;;;;;;;12.77;57.51;98439.84;8284561;28;20237;-79
2023/01/06 18:03:04;;;;;;;7.13;6.40;;;;;;;12.74;57.01;98444.34;8284375;28;20235;-78
2023/01/06 18:07:10;;;;;;;4.37;4.07;;;;;;;12.65;57.56;98445.59;8284185;28;20251;-79
2023/01/06 18:11:29;;;;;;;1.43;0.87;;;;;;;12.56;57.71;98448.63;8284437;28;20252;-80
2023/01/06 18:15:33;;;;;;;0.50;0.50;;;;;;;12.68;56.97;98455.88;8284103;28;20250;-80
2023/01/06 18:19:37;;;;;;;0.63;0.60;;;;;;;12.63;57.39;98453.47;8284103;28;20243;-79
2023/01/06 18:23:41;;;;;;;1.23;0.80;;;;;;;12.66;57.11;98453.34;8283131;28;20237;-80
2023/01/06 18:27:46;;;;;;;1.50;1.40;;;;;;;12.82;57.17;98450.03;8283940;28;20229;-79
2023/01/06 18:31:50;;;;;;;1.10;1.00;;;;;;;12.67;57.52;98449.81;8283317;28;20243;-79
2023/01/06 18:35:56;;;;;;;1.40;0.80;;;;;;;12.58;57.50;98452.00;8283748;28;20536;-75
2023/01/06 18:40:02;;;;;;;10.63;6.27;;;;;;;12.72;57.19;98473.00;8283866;28;20546;-76
2023/01/06 18:44:15;;;;;;;3.50;2.30;;;;;;;12.69;57.22;98454.94;8283185;28;20232;-77
2023/01/06 18:48:27;;;;;;;8.07;7.27;;;;;;;12.82;57.17;98473.44;8283143;28;20246;-79
2023/01/06 18:52:41;;;;;;;9.43;7.63;;;;;;;12.67;57.47;98468.00;8283119;28;20237;-75
2023/01/06 18:56:44;;;;;;;6.83;6.00;;;;;;;12.82;57.23;98474.28;8282423;28;20516;-74
2023/01/06 19:00:52;;;;;;;6.93;3.63;;;;;;;13.22;71.99;98436.03;8282499;28;20429;-76
2023/01/06 19:04:55;;;;;;;3.13;2.43;;;;;;;14.72;65.49;98481.53;8282805;28;20428;-76
2023/01/06 19:08:58;;;;;;;4.33;2.20;;;;;;;14.91;60.98;98484.00;8282695;28;20242;-77
2023/01/06 19:13:01;;;;;;;3.33;2.13;;;;;;;15.09;56.86;98484.75;8282353;28;20236;-75
2023/01/06 19:17:20;;;;;;;2.53;1.80;;;;;;;15.18;53.35;98479.03;8282304;28;20507;-76
2023/01/06 19:21:23;;;;;;;2.00;1.80;;;;;;;14.24;53.95;98472.69;8282185;28;20254;-76
2023/01/06 19:25:30;;;;;;;0.83;0.83;;;;;;;13.77;54.26;98460.31;8282188;28;20424;-75
2023/01/06 19:29:34;;;;;;;4.67;4.27;;;;;;;13.76;54.71;98476.84;8282588;28;20242;-78
2023/01/06 19:33:41;;;;;;;1.57;1.00;;;;;;;13.27;55.53;98469.63;8281673;28;20226;-80